Аэропорт: Алыкель. Норильск

ICAO: UOOO

METAR:
2021-04-21 20:00:00
UOOO 212000Z 20009MPS 0700 0650SE R19/1800N SN BLSN SCT013 M10/M11 Q1024 R19/31//50 NOSIG RMK QFE752/1002
METAR:
2021-04-21 18:56:00
TAF AMD UOOO 211856Z 2118/2218 20010G17MPS 2300 -SN BLSN BKN011 BECMG 2121/2123 0500 SN BLSN BKN006 BECMG 2204/2206 2500 -SN BLSN BKN011 FM220900 23009G14MPS 3200 -SN BLSN BKN016